Time;durP1;ratioP1;P1;durP2;ratioP2;P2;SDS_P1;SDS_P2;PMS_P1;PMS_P2;Temp;Humidity;BMP_temperature;BMP_pressure;BME280_temperature;BME280_humidity;BME280_pressure;Samples;Min_cycle;Max_cycle;Signal;HPM_P1;HPM_P2
2022/03/28 00:08:04;;;;;;;4.18;2.35;;;12.90;62.50;;;;;;20775300;28;20494;-74
2022/03/28 00:18:07;;;;;;;7.28;2.97;;;12.90;62.40;;;;;;20773926;28;20049;-74
2022/03/28 00:28:08;;;;;;;4.13;2.42;;;12.90;62.30;;;;;;20773657;28;20095;-74
2022/03/28 00:38:09;;;;;;;6.90;2.83;;;12.90;62.30;;;;;;20772894;28;20068;-74
2022/03/28 00:48:10;;;;;;;5.97;2.08;;;12.90;62.30;;;;;;20788952;28;20430;-75
2022/03/28 00:58:11;;;;;;;3.33;2.22;;;12.80;62.20;;;;;;20755951;28;20067;-74
2022/03/28 01:08:13;;;;;;;3.17;2.05;;;12.80;62.10;;;;;;20779185;28;20026;-75
2022/03/28 01:18:14;;;;;;;3.00;1.77;;;12.80;62.00;;;;;;20715002;28;20042;-75
2022/03/28 01:28:15;;;;;;;3.30;2.38;;;12.80;62.00;;;;;;20720958;28;20115;-75
2022/03/28 01:38:17;;;;;;;6.40;3.00;;;12.80;61.90;;;;;;20736232;28;20120;-74
2022/03/28 01:48:18;;;;;;;4.70;2.78;;;12.80;61.90;;;;;;20719325;28;20092;-75
2022/03/28 01:58:18;;;;;;;6.45;2.30;;;12.80;61.80;;;;;;20751528;28;20649;-74
2022/03/28 02:08:19;;;;;;;5.20;3.05;;;12.70;61.80;;;;;;20718128;28;20067;-75
2022/03/28 02:18:20;;;;;;;6.63;2.67;;;12.70;61.80;;;;;;21138257;23;20067;-74
2022/03/28 02:28:20;;;;;;;5.40;2.40;;;12.70;61.70;;;;;;20914745;28;20170;-75
2022/03/28 02:38:21;;;;;;;5.05;3.20;;;12.70;61.70;;;;;;20896110;28;20045;-75
2022/03/28 02:48:21;;;;;;;5.07;2.83;;;12.70;61.70;;;;;;20879058;28;20124;-74
2022/03/28 02:58:22;;;;;;;6.90;3.30;;;12.70;61.70;;;;;;20910475;28;20124;-74
2022/03/28 03:08:23;;;;;;;5.95;3.05;;;12.70;61.80;;;;;;20909706;28;20368;-75
2022/03/28 03:18:23;;;;;;;7.32;4.22;;;12.60;61.80;;;;;;20886339;28;20052;-74
2022/03/28 03:28:25;;;;;;;7.03;3.60;;;12.60;61.90;;;;;;20875116;28;20052;-76
2022/03/28 03:38:26;;;;;;;7.07;3.85;;;12.60;62.00;;;;;;20873918;28;20069;-76
2022/03/28 03:48:27;;;;;;;5.13;3.03;;;12.60;62.00;;;;;;20873385;28;20467;-75
2022/03/28 03:58:27;;;;;;;5.90;3.22;;;12.60;62.00;;;;;;20905975;28;20093;-75
2022/03/28 04:08:28;;;;;;;5.05;2.67;;;12.60;62.00;;;;;;20889038;28;20116;-75
2022/03/28 04:18:28;;;;;;;5.60;3.58;;;12.60;62.10;;;;;;20906519;28;20040;-75
2022/03/28 04:28:29;;;;;;;5.20;2.92;;;12.50;62.00;;;;;;20872040;28;20383;-74
2022/03/28 04:38:30;;;;;;;3.90;2.15;;;12.50;62.00;;;;;;20887370;28;20041;-74
2022/03/28 04:48:30;;;;;;;4.93;2.75;;;12.50;62.00;;;;;;20876448;28;20029;-75
2022/03/28 04:58:31;;;;;;;4.22;2.25;;;12.50;61.90;;;;;;20870540;28;20047;-73
2022/03/28 05:08:31;;;;;;;3.80;2.55;;;12.50;61.80;;;;;;20872252;28;20032;-75
2022/03/28 05:18:32;;;;;;;4.28;2.60;;;12.50;61.80;;;;;;20904788;28;20075;-73
2022/03/28 05:28:32;;;;;;;4.95;2.17;;;12.40;61.70;;;;;;20899045;28;20147;-71
2022/03/28 05:38:33;;;;;;;3.58;2.38;;;12.40;61.70;;;;;;20897763;28;20041;-71
2022/03/28 05:48:34;;;;;;;2.83;1.90;;;12.40;61.50;;;;;;20882937;28;20395;-72
2022/03/28 05:58:34;;;;;;;2.83;1.88;;;12.40;61.30;;;;;;20915394;28;20792;-76
2022/03/28 06:08:35;;;;;;;3.40;1.58;;;12.40;61.30;;;;;;20883987;28;20036;-74
2022/03/28 06:18:36;;;;;;;1.67;1.30;;;12.40;61.20;;;;;;20883067;28;20049;-75
2022/03/28 06:28:39;;;;;;;3.28;1.65;;;12.30;61.10;;;;;;20915443;28;20095;-77
2022/03/28 06:38:39;;;;;;;2.28;1.45;;;12.30;61.00;;;;;;20866987;28;20037;-75
2022/03/28 06:48:40;;;;;;;2.40;1.42;;;12.30;61.00;;;;;;20882415;28;20494;-77
2022/03/28 06:58:41;;;;;;;1.60;1.02;;;12.30;61.00;;;;;;20879799;28;20064;-78
2022/03/28 07:08:42;;;;;;;1.42;1.00;;;12.30;61.00;;;;;;20878168;28;20045;-76
2022/03/28 07:18:42;;;;;;;2.45;1.38;;;12.20;61.00;;;;;;20878768;28;20051;-73
2022/03/28 07:28:43;;;;;;;1.00;0.77;;;12.20;61.00;;;;;;20904900;28;20041;-72
2022/03/28 07:38:44;;;;;;;1.35;0.85;;;12.20;61.10;;;;;;20907643;28;20041;-73
2022/03/28 07:48:44;;;;;;;1.25;0.85;;;12.20;61.10;;;;;;20874485;28;20040;-73
2022/03/28 07:58:46;;;;;;;1.75;0.95;;;12.20;61.10;;;;;;20857395;28;20464;-73
2022/03/28 08:08:47;;;;;;;1.40;0.90;;;12.20;61.20;;;;;;20906373;28;20029;-73
2022/03/28 08:18:48;;;;;;;2.78;0.57;;;12.20;61.20;;;;;;20889404;28;20059;-74
2022/03/28 08:28:49;;;;;;;1.63;0.85;;;12.20;61.90;;;;;;20871515;28;20112;-74
2022/03/28 08:38:49;;;;;;;1.38;0.77;;;12.20;61.20;;;;;;20905274;28;20033;-73
2022/03/28 08:48:50;;;;;;;0.90;0.70;;;12.20;61.30;;;;;;20888364;28;20045;-76
2022/03/28 08:58:50;;;;;;;0.85;0.63;;;12.20;61.40;;;;;;20882014;28;20041;-77
2022/03/28 09:08:51;;;;;;;2.13;1.02;;;12.20;61.70;;;;;;20873487;28;20063;-74
2022/03/28 09:18:53;;;;;;;1.33;0.83;;;12.40;62.10;;;;;;20874034;28;20041;-75
2022/03/28 09:29:01;;;;;;;3.85;1.30;;;12.50;62.50;;;;;;20872811;28;20286;-78
2022/03/28 09:39:04;;;;;;;2.55;1.00;;;12.60;62.90;;;;;;20888597;28;20128;-80
2022/03/28 09:49:05;;;;;;;5.85;1.15;;;12.70;63.20;;;;;;20885086;28;20033;-78
2022/03/28 09:59:05;;;;;;;3.38;1.02;;;12.60;63.10;;;;;;20883820;28;20074;-76
2022/03/28 10:09:06;;;;;;;3.28;0.90;;;12.60;63.20;;;;;;20884298;28;20067;-77
2022/03/28 10:19:07;;;;;;;2.15;0.88;;;12.50;63.20;;;;;;20884968;28;20179;-80
2022/03/28 10:29:09;;;;;;;2.78;0.95;;;12.50;63.30;;;;;;20900805;28;20033;-76
2022/03/28 10:39:35;;;;;;;3.03;1.02;;;12.50;63.30;;;;;;20880570;28;20048;-72
2022/03/28 10:49:36;;;;;;;3.70;1.85;;;12.50;63.40;;;;;;20893609;28;20111;-73
2022/03/28 10:59:36;;;;;;;1.88;1.20;;;12.40;63.40;;;;;;20881518;28;20072;-74
2022/03/28 11:09:50;;;;;;;2.50;0.95;;;12.40;63.40;;;;;;20896914;28;20029;-76
2022/03/28 11:19:56;;;;;;;2.80;1.13;;;12.40;63.60;;;;;;20897535;28;20041;-74
2022/03/28 11:30:10;;;;;;;1.97;0.70;;;12.40;63.60;;;;;;20878319;28;20682;-73
2022/03/28 11:40:11;;;;;;;1.42;0.65;;;12.40;63.70;;;;;;20892648;28;20452;-74
2022/03/28 11:50:12;;;;;;;1.17;0.63;;;12.30;63.80;;;;;;20878075;28;20044;-76
2022/03/28 12:00:18;;;;;;;1.75;0.70;;;12.30;63.80;;;;;;20876259;28;20041;-75
2022/03/28 12:10:28;;;;;;;1.83;0.85;;;12.30;63.90;;;;;;20859654;28;20043;-73
2022/03/28 12:20:30;;;;;;;1.85;0.77;;;12.30;64.00;;;;;;20876722;28;20106;-79
2022/03/28 12:30:47;;;;;;;1.98;1.05;;;12.40;64.20;;;;;;20888722;28;20115;-78
2022/03/28 12:40:52;;;;;;;1.65;1.05;;;12.30;64.30;;;;;;20874231;28;20395;-75
2022/03/28 12:51:04;;;;;;;2.17;1.10;;;12.30;64.50;;;;;;20888719;28;20039;-76
2022/03/28 13:01:06;;;;;;;3.13;1.33;;;12.30;64.70;;;;;;20872137;28;20044;-74
2022/03/28 13:11:17;;;;;;;2.00;1.00;;;12.40;64.70;;;;;;20893837;28;20037;-74
2022/03/28 13:21:18;;;;;;;1.90;1.20;;;12.40;64.70;;;;;;20902911;28;20044;-72
2022/03/28 13:31:20;;;;;;;2.63;1.35;;;12.40;64.70;;;;;;20886444;28;20036;-73
2022/03/28 13:41:21;;;;;;;1.58;0.70;;;12.50;64.70;;;;;;20884560;28;20457;-75
2022/03/28 13:51:23;;;;;;;2.00;1.00;;;12.50;64.60;;;;;;20895321;28;20033;-74
2022/03/28 14:01:27;;;;;;;3.22;1.17;;;12.50;64.50;;;;;;20882465;28;20037;-78
2022/03/28 14:11:29;;;;;;;2.53;1.05;;;12.50;64.30;;;;;;20870213;28;20415;-86
2022/03/28 14:21:29;;;;;;;2.33;1.50;;;12.50;64.20;;;;;;20880233;28;20029;-75
2022/03/28 14:31:31;;;;;;;2.85;2.05;;;12.60;63.90;;;;;;20881387;28;20033;-72
2022/03/28 14:41:31;;;;;;;4.97;2.33;;;12.60;63.40;;;;;;20897304;28;20033;-75
2022/03/28 14:51:32;;;;;;;5.30;2.78;;;12.60;63.10;;;;;;20878506;28;20107;-72
2022/03/28 15:01:33;;;;;;;6.45;2.75;;;12.70;62.90;;;;;;20894338;28;20055;-73
2022/03/28 15:11:36;;;;;;;3.45;1.90;;;12.80;62.70;;;;;;20962275;28;20035;-74
2022/03/28 15:21:37;;;;;;;6.43;2.85;;;12.90;62.60;;;;;;20959959;28;20041;-75
2022/03/28 15:31:39;;;;;;;4.38;2.10;;;13.00;62.40;;;;;;20956863;28;20043;-73
2022/03/28 15:41:40;;;;;;;3.10;1.52;;;13.10;62.30;;;;;;20973644;28;20048;-73
2022/03/28 15:51:42;;;;;;;1.53;0.80;;;13.20;62.20;;;;;;20972969;28;20045;-73
2022/03/28 16:01:48;;;;;;;2.42;1.40;;;13.20;62.10;;;;;;20886404;28;20298;-74
2022/03/28 16:11:50;;;;;;;2.33;1.37;;;13.20;62.00;;;;;;20898456;28;20293;-77
2022/03/28 16:21:52;;;;;;;3.38;1.17;;;13.20;62.10;;;;;;20890086;28;20660;-81
2022/03/28 16:31:52;;;;;;;4.10;1.67;;;13.20;62.10;;;;;;20871723;28;20060;-75
2022/03/28 16:41:53;;;;;;;2.97;1.55;;;13.10;62.20;;;;;;20890771;28;20033;-79
2022/03/28 16:51:53;;;;;;;6.50;1.70;;;13.10;62.30;;;;;;20908621;28;20471;-83
2022/03/28 17:01:54;;;;;;;3.72;1.85;;;13.10;62.40;;;;;;20889332;28;20115;-83
2022/03/28 17:11:55;;;;;;;4.63;1.42;;;13.00;62.50;;;;;;20910777;28;20072;-81
2022/03/28 17:21:59;;;;;;;3.78;1.60;;;13.00;62.50;;;;;;20875944;28;20640;-84
2022/03/28 17:32:00;;;;;;;2.22;1.40;;;13.00;62.60;;;;;;20922669;28;20033;-82
2022/03/28 17:42:01;;;;;;;5.45;1.85;;;12.90;62.80;;;;;;20908902;28;20064;-81
2022/03/28 17:52:02;;;;;;;5.35;1.83;;;12.80;62.80;;;;;;20873502;28;20106;-79
2022/03/28 18:02:03;;;;;;;3.33;1.40;;;12.80;62.90;;;;;;20886513;28;20029;-81
2022/03/28 18:12:04;;;;;;;2.15;1.60;;;12.80;63.00;;;;;;20887788;28;20091;-81
2022/03/28 18:22:05;;;;;;;3.45;1.70;;;12.80;63.10;;;;;;20902514;28;20372;-81
2022/03/28 18:32:06;;;;;;;3.53;1.85;;;12.70;63.10;;;;;;20884835;28;20053;-81
2022/03/28 18:42:07;;;;;;;4.80;2.30;;;12.70;63.30;;;;;;20885283;28;20053;-81
2022/03/28 18:52:08;;;;;;;2.30;1.42;;;12.70;63.30;;;;;;20900962;28;20439;-83
2022/03/28 19:02:09;;;;;;;5.40;2.00;;;12.60;63.30;;;;;;20920829;28;20538;-82
2022/03/28 19:12:09;;;;;;;2.67;2.13;;;12.60;63.40;;;;;;20904236;28;20033;-80
2022/03/28 19:22:11;;;;;;;3.83;1.67;;;12.60;63.40;;;;;;20912887;28;20032;-80
2022/03/28 19:32:12;;;;;;;2.33;1.65;;;12.60;63.50;;;;;;20904181;28;20342;-81
2022/03/28 19:42:12;;;;;;;6.80;3.92;;;12.50;63.40;;;;;;20879222;28;20037;-80
2022/03/28 19:52:13;;;;;;;2.97;1.75;;;12.50;63.50;;;;;;20893732;28;20043;-80
2022/03/28 20:02:13;;;;;;;3.85;2.13;;;12.50;63.50;;;;;;20887681;28;20063;-80
2022/03/28 20:12:14;;;;;;;3.75;1.95;;;12.50;64.10;;;;;;20894996;28;20029;-81
2022/03/28 20:22:15;;;;;;;3.75;1.75;;;12.40;63.40;;;;;;20923064;28;20473;-80
2022/03/28 20:32:16;;;;;;;3.13;2.05;;;12.50;63.40;;;;;;20860686;28;20029;-80
2022/03/28 20:42:16;;;;;;;2.83;1.90;;;12.50;63.40;;;;;;20913842;28;20028;-81
2022/03/28 20:52:20;;;;;;;2.72;1.65;;;12.40;63.40;;;;;;20891741;28;20040;-82
2022/03/28 21:02:21;;;;;;;4.25;2.25;;;12.40;63.40;;;;;;20904964;28;20029;-80
2022/03/28 21:12:22;;;;;;;6.95;2.65;;;12.40;63.30;;;;;;20909621;28;20059;-77
2022/03/28 21:22:22;;;;;;;4.00;2.03;;;12.30;63.20;;;;;;20926290;28;20429;-77
2022/03/28 21:32:24;;;;;;;4.05;2.45;;;12.40;63.30;;;;;;20900794;28;20057;-78
2022/03/28 21:42:24;;;;;;;4.13;2.28;;;12.40;63.20;;;;;;20940316;28;20291;-77
2022/03/28 21:52:28;;;;;;;3.67;2.00;;;12.30;63.20;;;;;;20939354;28;20498;-78
2022/03/28 22:02:29;;;;;;;2.17;1.45;;;12.30;63.10;;;;;;20922287;28;20467;-79
2022/03/28 22:12:29;;;;;;;3.72;2.15;;;12.30;63.20;;;;;;20919160;28;20051;-82
2022/03/28 22:22:30;;;;;;;4.90;2.92;;;12.30;63.10;;;;;;20920542;28;20033;-78
2022/03/28 22:32:30;;;;;;;3.88;2.13;;;12.30;63.20;;;;;;20919074;28;20037;-78
2022/03/28 22:42:31;;;;;;;2.85;1.75;;;12.30;63.10;;;;;;20935082;28;20064;-81
2022/03/28 22:52:36;;;;;;;4.25;2.17;;;12.30;63.10;;;;;;20916541;28;20041;-79
2022/03/28 23:02:37;;;;;;;3.92;2.42;;;12.30;63.10;;;;;;20885545;28;20522;-81
2022/03/28 23:12:38;;;;;;;4.05;2.33;;;12.30;63.10;;;;;;20883151;28;20119;-80
2022/03/28 23:22:44;;;;;;;4.47;2.47;;;12.20;63.00;;;;;;20881538;28;20075;-80
2022/03/28 23:32:44;;;;;;;4.70;2.70;;;12.20;63.00;;;;;;20866795;28;20059;-79
2022/03/28 23:42:45;;;;;;;3.75;2.50;;;12.20;63.00;;;;;;20864348;28;20045;-82
2022/03/28 23:52:50;;;;;;;3.92;2.40;;;12.20;63.00;;;;;;20862779;28;20051;-78
